Time;durP1;ratioP1;P1;durP2;ratioP2;P2;SDS_P1;SDS_P2;PMS_P1;PMS_P2;Temp;Humidity;BMP_temperature;BMP_pressure;BME280_temperature;BME280_humidity;BME280_pressure;Samples;Min_cycle;Max_cycle;Signal;HPM_P1;HPM_P2
2024/02/25 00:02:47;;;;;;;3.97;1.30;;;5.90;99.90;;;;;;8450200;28;20047;-71
2024/02/25 00:06:48;;;;;;;4.05;1.25;;;6.00;99.90;;;;;;8453569;28;20468;-71
2024/02/25 00:10:50;;;;;;;3.90;1.25;;;6.00;99.90;;;;;;8453351;28;20129;-71
2024/02/25 00:14:52;;;;;;;3.40;1.48;;;6.00;99.90;;;;;;8444345;28;20247;-71
2024/02/25 00:18:54;;;;;;;6.22;1.70;;;6.00;99.90;;;;;;8421325;28;20503;-71
2024/02/25 00:22:56;;;;;;;3.60;1.60;;;6.00;99.90;;;;;;8437407;28;20093;-71
2024/02/25 00:26:58;;;;;;;3.65;1.42;;;6.00;99.90;;;;;;8450176;28;20391;-71
2024/02/25 00:30:59;;;;;;;4.18;1.80;;;6.00;99.90;;;;;;8449339;28;20043;-71
2024/02/25 00:35:01;;;;;;;3.83;1.50;;;6.10;99.90;;;;;;8472941;27;20048;-71
2024/02/25 00:39:03;;;;;;;4.03;1.73;;;6.10;99.90;;;;;;8453001;28;20036;-71
2024/02/25 00:43:05;;;;;;;7.38;1.95;;;6.10;99.90;;;;;;8454791;28;20518;-71
2024/02/25 00:47:07;;;;;;;4.40;1.77;;;6.10;99.90;;;;;;8456424;28;20295;-71
2024/02/25 00:51:09;;;;;;;5.93;1.58;;;6.10;99.90;;;;;;8458772;28;20074;-71
2024/02/25 00:55:26;;;;;;;4.93;1.70;;;6.10;99.90;;;;;;8457724;28;20479;-71
2024/02/25 00:59:27;;;;;;;8.87;2.03;;;6.10;99.90;;;;;;8459402;28;20043;-71
2024/02/25 01:03:29;;;;;;;3.42;1.63;;;6.10;99.90;;;;;;8456221;28;20772;-71
2024/02/25 01:07:31;;;;;;;4.20;1.63;;;6.10;99.90;;;;;;8459081;28;20047;-71
2024/02/25 01:11:35;;;;;;;4.13;1.52;;;6.10;99.90;;;;;;8455542;28;20040;-71
2024/02/25 01:15:37;;;;;;;4.78;2.05;;;6.10;99.90;;;;;;8444936;28;20044;-71
2024/02/25 01:19:39;;;;;;;5.63;1.83;;;6.00;99.90;;;;;;8458402;28;20062;-71
2024/02/25 01:23:41;;;;;;;3.90;1.65;;;6.00;99.90;;;;;;8452029;28;20101;-71
2024/02/25 01:27:44;;;;;;;4.40;1.58;;;6.00;99.90;;;;;;8456040;28;20040;-71
2024/02/25 01:31:50;;;;;;;3.38;1.40;;;6.00;99.90;;;;;;8456162;28;20083;-71
2024/02/25 01:35:55;;;;;;;4.45;2.00;;;6.00;99.90;;;;;;8452548;27;20050;-71
2024/02/25 01:39:57;;;;;;;3.50;1.48;;;6.00;99.90;;;;;;8456600;28;20055;-71
2024/02/25 01:43:58;;;;;;;3.78;1.60;;;6.00;99.90;;;;;;8454690;28;20476;-71
2024/02/25 01:48:01;;;;;;;4.32;1.70;;;6.10;99.90;;;;;;8452598;28;20039;-71
2024/02/25 01:52:03;;;;;;;4.15;1.70;;;6.10;99.90;;;;;;8456083;28;20044;-71
2024/02/25 01:56:06;;;;;;;4.80;2.17;;;6.10;99.90;;;;;;8451286;28;20108;-71
2024/02/25 02:00:08;;;;;;;7.43;2.03;;;6.10;99.90;;;;;;8448737;28;20048;-71
2024/02/25 02:04:10;;;;;;;3.92;1.73;;;6.00;99.90;;;;;;8421059;28;20556;-71
2024/02/25 02:08:12;;;;;;;4.05;1.95;;;6.10;99.90;;;;;;8436813;28;20051;-71
2024/02/25 02:12:14;;;;;;;4.60;2.53;;;6.10;99.90;;;;;;8418119;28;20129;-71
2024/02/25 02:16:16;;;;;;;4.63;2.20;;;6.00;99.90;;;;;;8405419;28;20052;-71
2024/02/25 02:20:18;;;;;;;5.95;2.20;;;5.90;99.90;;;;;;8410764;28;20097;-71
2024/02/25 02:24:20;;;;;;;4.95;1.90;;;5.90;99.90;;;;;;8419276;27;20052;-71
2024/02/25 02:28:22;;;;;;;5.20;2.17;;;5.90;99.90;;;;;;8415172;28;20155;-71
2024/02/25 02:32:24;;;;;;;4.97;2.50;;;5.80;99.90;;;;;;8417383;28;20039;-71
2024/02/25 02:36:26;;;;;;;5.30;2.85;;;5.80;99.90;;;;;;8428563;28;20551;-71
2024/02/25 02:40:28;;;;;;;5.30;2.97;;;5.70;99.90;;;;;;8433950;28;20051;-71
2024/02/25 02:44:30;;;;;;;6.20;3.05;;;5.70;99.90;;;;;;8446399;28;20054;-71
2024/02/25 02:49:28;;;;;;;5.90;3.60;;;5.70;99.90;;;;;;8453686;28;20075;-71
2024/02/25 02:58:31;;;;;;;5.50;3.33;;;5.80;99.90;;;;;;8453634;28;20467;-70
2024/02/25 03:02:33;;;;;;;6.75;3.38;;;5.80;99.90;;;;;;8451280;28;20486;-71
2024/02/25 03:06:35;;;;;;;4.65;2.70;;;5.80;99.90;;;;;;8452856;28;20047;-71
2024/02/25 03:10:37;;;;;;;5.43;2.70;;;5.80;99.90;;;;;;8454334;28;20078;-70
2024/02/25 03:14:40;;;;;;;6.20;2.55;;;5.80;99.90;;;;;;8449084;28;20493;-71
2024/02/25 03:18:42;;;;;;;6.05;2.88;;;5.70;99.90;;;;;;8454544;28;20052;-71
2024/02/25 03:22:44;;;;;;;4.88;2.80;;;5.70;99.90;;;;;;8450999;28;20052;-71
2024/02/25 03:26:49;;;;;;;5.03;2.70;;;5.70;99.90;;;;;;8452648;28;20067;-71
2024/02/25 03:30:51;;;;;;;5.95;2.70;;;5.60;99.90;;;;;;8455937;28;20047;-71
2024/02/25 03:34:53;;;;;;;5.47;2.70;;;5.60;99.90;;;;;;8414809;28;20125;-71
2024/02/25 03:38:55;;;;;;;5.40;2.78;;;5.60;99.90;;;;;;8436175;28;20080;-71
2024/02/25 03:43:41;;;;;;;5.65;2.40;;;5.60;99.90;;;;;;8452509;28;20101;-71
2024/02/25 03:47:43;;;;;;;4.80;2.40;;;5.60;99.90;;;;;;8453331;28;20058;-71
2024/02/25 03:51:45;;;;;;;6.03;2.55;;;5.60;99.90;;;;;;8455819;28;20050;-71
2024/02/25 03:55:47;;;;;;;5.22;2.42;;;5.60;99.90;;;;;;8438671;28;20417;-71
2024/02/25 03:59:49;;;;;;;5.32;2.42;;;5.60;99.90;;;;;;8453440;28;20050;-71
2024/02/25 04:03:51;;;;;;;4.35;2.20;;;5.70;99.90;;;;;;8428622;28;20456;-71
2024/02/25 04:07:52;;;;;;;4.82;2.10;;;5.70;99.90;;;;;;8423951;28;20044;-71
2024/02/25 04:11:55;;;;;;;4.72;2.20;;;5.70;99.90;;;;;;8454526;28;20406;-71
2024/02/25 04:15:56;;;;;;;4.93;2.30;;;5.70;99.90;;;;;;8446664;28;20040;-71
2024/02/25 04:19:58;;;;;;;7.15;2.33;;;5.70;99.90;;;;;;8460562;28;20071;-71
2024/02/25 04:29:23;;;;;;;5.30;2.47;;;5.70;99.90;;;;;;8425631;28;20084;-71
2024/02/25 04:33:24;;;;;;;6.03;3.22;;;5.60;99.90;;;;;;8448830;28;20558;-71
2024/02/25 04:37:26;;;;;;;4.55;2.53;;;5.70;99.90;;;;;;8448802;28;20501;-70
2024/02/25 04:41:28;;;;;;;4.80;2.33;;;5.70;99.90;;;;;;8417981;28;20077;-71
2024/02/25 04:45:30;;;;;;;5.57;2.50;;;5.70;99.90;;;;;;8412502;28;20060;-71
2024/02/25 04:49:32;;;;;;;5.15;2.83;;;5.70;99.90;;;;;;8414196;27;20100;-71
2024/02/25 04:53:34;;;;;;;4.88;2.10;;;5.60;99.90;;;;;;8415075;28;20105;-71
2024/02/25 04:57:37;;;;;;;5.28;2.33;;;5.70;99.90;;;;;;8429386;28;20078;-71
2024/02/25 05:01:44;;;;;;;5.22;2.83;;;5.70;99.90;;;;;;8457106;28;20055;-71
2024/02/25 05:05:45;;;;;;;5.70;3.25;;;5.70;99.90;;;;;;8451877;28;20498;-71
2024/02/25 05:09:47;;;;;;;5.07;2.80;;;5.70;99.90;;;;;;8457937;27;20083;-71
2024/02/25 05:13:52;;;;;;;5.43;2.97;;;5.70;99.90;;;;;;8459769;27;20419;-71
2024/02/25 05:17:54;;;;;;;5.35;2.85;;;5.70;99.90;;;;;;8459584;28;20055;-71
2024/02/25 05:21:56;;;;;;;6.05;3.30;;;5.70;99.90;;;;;;8457977;28;20566;-71
2024/02/25 05:25:58;;;;;;;5.30;2.88;;;5.70;99.90;;;;;;8457914;28;20048;-71
2024/02/25 05:30:00;;;;;;;6.18;3.30;;;5.70;99.90;;;;;;8457613;28;20047;-71
2024/02/25 05:34:02;;;;;;;6.07;2.83;;;5.70;99.90;;;;;;8456218;28;20047;-71
2024/02/25 05:38:04;;;;;;;4.93;2.65;;;5.70;99.90;;;;;;8451953;28;20525;-71
2024/02/25 05:42:06;;;;;;;5.95;3.08;;;5.80;99.90;;;;;;8457807;28;20406;-71
2024/02/25 05:46:08;;;;;;;5.80;3.05;;;5.80;99.90;;;;;;8455307;28;20514;-71
2024/02/25 05:50:11;;;;;;;4.80;2.20;;;5.70;99.90;;;;;;8456299;28;20491;-71
2024/02/25 05:54:13;;;;;;;6.32;3.35;;;5.70;99.90;;;;;;8456111;27;20048;-70
2024/02/25 05:58:15;;;;;;;7.57;4.13;;;5.70;99.90;;;;;;8455963;28;20055;-71
2024/02/25 06:02:17;;;;;;;5.95;3.38;;;5.70;99.90;;;;;;8456131;28;20048;-71
2024/02/25 06:06:19;;;;;;;5.40;3.13;;;5.70;99.90;;;;;;8456648;27;20055;-71
2024/02/25 06:10:21;;;;;;;7.50;4.15;;;5.80;99.90;;;;;;8455210;27;20447;-71
2024/02/25 06:14:22;;;;;;;7.40;3.90;;;5.70;99.90;;;;;;8452637;27;20051;-71
2024/02/25 06:18:24;;;;;;;6.22;3.30;;;5.70;99.90;;;;;;8453295;28;20130;-71
2024/02/25 06:22:26;;;;;;;9.15;4.80;;;5.70;99.90;;;;;;8454546;28;20449;-70
2024/02/25 06:26:28;;;;;;;8.05;4.63;;;5.80;99.90;;;;;;8457257;28;20058;-71
2024/02/25 06:30:30;;;;;;;7.57;4.78;;;5.80;99.90;;;;;;8455862;28;20055;-71
2024/02/25 06:34:32;;;;;;;8.32;5.32;;;5.80;99.90;;;;;;8456338;27;20047;-71
2024/02/25 06:38:36;;;;;;;8.63;4.97;;;5.80;99.90;;;;;;8452696;28;20066;-70
2024/02/25 06:42:37;;;;;;;8.77;4.97;;;5.80;99.90;;;;;;8449441;28;20549;-71
2024/02/25 06:46:42;;;;;;;9.27;4.82;;;5.80;99.90;;;;;;8451337;27;20522;-71
2024/02/25 06:50:44;;;;;;;9.52;5.53;;;5.80;99.90;;;;;;8456193;28;20092;-71
2024/02/25 06:54:46;;;;;;;9.38;5.18;;;5.80;99.90;;;;;;8458701;28;20126;-71
2024/02/25 06:58:48;;;;;;;9.75;5.35;;;5.80;99.90;;;;;;8457753;28;20084;-71
2024/02/25 07:02:54;;;;;;;8.93;5.13;;;5.90;99.90;;;;;;8456004;28;20043;-71
2024/02/25 07:06:56;;;;;;;9.70;5.38;;;5.90;99.90;;;;;;8461434;27;20047;-70
2024/02/25 07:10:58;;;;;;;9.75;5.05;;;5.90;99.90;;;;;;8456239;28;20163;-70
2024/02/25 07:15:00;;;;;;;9.07;4.75;;;5.90;99.90;;;;;;8455821;27;20036;-71
2024/02/25 07:19:02;;;;;;;7.28;4.10;;;5.90;99.90;;;;;;8462581;27;20052;-71
2024/02/25 07:23:04;;;;;;;12.15;5.80;;;5.90;99.90;;;;;;8440936;28;20075;-71
2024/02/25 07:27:06;;;;;;;7.55;4.43;;;5.90;99.90;;;;;;8436221;28;20062;-71
2024/02/25 07:31:20;;;;;;;12.15;6.63;;;6.00;99.90;;;;;;8476257;27;20395;-71
2024/02/25 07:35:22;;;;;;;11.13;5.88;;;6.00;99.90;;;;;;8464981;27;20044;-71
2024/02/25 07:39:24;;;;;;;9.73;5.38;;;6.00;99.90;;;;;;8452040;28;20056;-71
2024/02/25 07:43:26;;;;;;;9.95;6.07;;;6.10;99.90;;;;;;8437334;28;20081;-70
2024/02/25 07:47:27;;;;;;;12.60;5.95;;;6.10;99.90;;;;;;8450162;28;20047;-71
2024/02/25 07:51:36;;;;;;;11.07;6.72;;;6.20;99.90;;;;;;8479311;27;20040;-71
2024/02/25 07:55:38;;;;;;;8.77;5.45;;;6.20;99.90;;;;;;8478502;27;20052;-71
2024/02/25 07:59:40;;;;;;;11.13;6.75;;;6.20;99.90;;;;;;8459314;28;20044;-71
2024/02/25 08:03:42;;;;;;;10.75;5.93;;;6.20;99.90;;;;;;8461263;28;20051;-71
2024/02/25 08:07:45;;;;;;;9.35;5.32;;;6.30;99.90;;;;;;8455665;28;20039;-71
2024/02/25 08:11:47;;;;;;;11.25;6.55;;;6.30;99.90;;;;;;8456984;28;20517;-71
2024/02/25 08:15:49;;;;;;;11.38;6.25;;;6.30;99.90;;;;;;8451252;28;20044;-71
2024/02/25 08:19:51;;;;;;;9.27;4.88;;;6.30;99.90;;;;;;8452767;28;20086;-71
2024/02/25 08:23:53;;;;;;;11.77;7.00;;;6.40;99.90;;;;;;8449265;28;20450;-71
2024/02/25 08:27:55;;;;;;;10.30;5.90;;;6.40;99.90;;;;;;8458527;28;20044;-71
2024/02/25 08:31:57;;;;;;;10.82;6.63;;;6.50;99.90;;;;;;8455643;28;20093;-71
2024/02/25 08:35:58;;;;;;;14.50;9.00;;;6.50;99.90;;;;;;8454979;28;20074;-71
2024/02/25 08:40:00;;;;;;;11.82;7.78;;;6.60;99.90;;;;;;8451839;27;20040;-71
2024/02/25 08:44:02;;;;;;;13.50;8.48;;;6.60;99.90;;;;;;8455768;28;20143;-71
2024/02/25 08:48:04;;;;;;;14.15;8.02;;;6.70;99.90;;;;;;8458946;28;20118;-71
2024/02/25 08:52:07;;;;;;;13.00;7.63;;;6.90;99.90;;;;;;8451125;28;20039;-71
2024/02/25 08:56:09;;;;;;;14.50;9.63;;;7.00;99.90;;;;;;8444484;28;20040;-71
2024/02/25 09:00:11;;;;;;;15.75;9.75;;;7.10;99.90;;;;;;8447935;28;20051;-71
2024/02/25 09:04:13;;;;;;;13.65;8.52;;;7.10;99.90;;;;;;8452719;28;20048;-71
2024/02/25 09:08:16;;;;;;;16.65;11.05;;;7.00;99.90;;;;;;8452563;28;20048;-71
2024/02/25 09:12:18;;;;;;;18.02;11.57;;;6.90;99.90;;;;;;8445657;28;20048;-71
2024/02/25 09:16:20;;;;;;;15.70;10.48;;;7.00;99.90;;;;;;8444341;27;20059;-71
2024/02/25 09:20:24;;;;;;;20.73;11.10;;;7.00;99.90;;;;;;8448087;27;20100;-71
2024/02/25 09:24:26;;;;;;;14.65;8.73;;;7.10;99.90;;;;;;8462744;27;20057;-71
2024/02/25 09:28:28;;;;;;;19.92;11.30;;;7.10;99.90;;;;;;8456796;28;20040;-71
2024/02/25 09:32:30;;;;;;;19.45;11.45;;;7.20;99.90;;;;;;8455733;28;20119;-71
2024/02/25 09:36:32;;;;;;;16.70;10.85;;;7.30;99.90;;;;;;8460085;27;20052;-71
2024/02/25 09:40:34;;;;;;;15.75;9.88;;;7.40;99.90;;;;;;8460641;28;20470;-71
2024/02/25 09:44:38;;;;;;;15.48;9.70;;;7.50;99.90;;;;;;8452710;28;20063;-71
2024/02/25 09:48:40;;;;;;;14.63;9.18;;;7.80;99.90;;;;;;8458956;28;20039;-71
2024/02/25 09:52:44;;;;;;;19.15;10.15;;;8.00;99.90;;;;;;8452065;28;20411;-71
2024/02/25 09:56:50;;;;;;;15.60;9.38;;;7.90;99.90;;;;;;8455045;28;20043;-71
2024/02/25 10:00:52;;;;;;;17.65;9.85;;;7.90;99.90;;;;;;8451470;28;20143;-71
2024/02/25 10:04:54;;;;;;;17.48;10.05;;;8.00;99.90;;;;;;8453435;28;20406;-71
2024/02/25 10:08:55;;;;;;;15.15;10.10;;;8.20;99.90;;;;;;8455200;28;20044;-71
2024/02/25 10:13:00;;;;;;;14.93;8.68;;;8.30;99.90;;;;;;8454458;28;20587;-71
2024/02/25 10:17:06;;;;;;;17.88;11.25;;;8.40;99.90;;;;;;8447801;28;20085;-71
2024/02/25 10:21:08;;;;;;;16.67;9.25;;;8.30;99.90;;;;;;8453892;28;20039;-71
2024/02/25 10:25:11;;;;;;;17.15;10.20;;;8.30;99.90;;;;;;8450290;28;20040;-71
2024/02/25 10:29:13;;;;;;;14.15;10.15;;;8.20;99.90;;;;;;8454262;28;20043;-71
2024/02/25 10:33:15;;;;;;;17.42;9.75;;;8.10;99.90;;;;;;8450007;28;20048;-71
2024/02/25 10:37:22;;;;;;;16.10;10.05;;;8.20;99.90;;;;;;8451333;28;20461;-71
2024/02/25 10:41:25;;;;;;;14.20;8.82;;;8.40;99.90;;;;;;8457330;28;20142;-71
2024/02/25 10:45:28;;;;;;;18.45;9.38;;;8.50;99.90;;;;;;8454853;28;20047;-72
2024/02/25 10:49:30;;;;;;;15.50;9.38;;;8.50;99.90;;;;;;8456791;28;20043;-71
2024/02/25 10:53:33;;;;;;;12.98;8.68;;;8.50;99.90;;;;;;8455797;28;20048;-71
2024/02/25 10:57:39;;;;;;;11.18;7.47;;;8.50;99.90;;;;;;8453786;28;20509;-71
2024/02/25 11:01:43;;;;;;;12.38;7.22;;;8.30;99.90;;;;;;8456492;28;20466;-71
2024/02/25 11:05:46;;;;;;;11.25;7.22;;;8.20;99.90;;;;;;8454558;28;20131;-71
2024/02/25 11:09:48;;;;;;;12.05;7.05;;;8.10;99.90;;;;;;8457900;28;20099;-71
2024/02/25 11:13:50;;;;;;;8.40;5.45;;;8.00;99.90;;;;;;8447995;28;20040;-71
2024/02/25 11:17:55;;;;;;;9.55;6.30;;;8.00;99.90;;;;;;8439610;28;20040;-71
2024/02/25 11:27:19;;;;;;;11.18;6.55;;;8.20;99.90;;;;;;8431311;28;20030;-71
2024/02/25 11:31:50;;;;;;;11.23;6.85;;;8.20;99.90;;;;;;8446122;28;20104;-71
2024/02/25 11:35:54;;;;;;;9.80;6.22;;;8.20;99.90;;;;;;8438148;28;20074;-71
2024/02/25 11:39:56;;;;;;;11.40;7.03;;;8.30;99.90;;;;;;8444197;28;20131;-71
2024/02/25 11:44:00;;;;;;;10.10;6.45;;;8.40;99.90;;;;;;8443021;28;20121;-71
2024/02/25 11:48:02;;;;;;;10.95;7.20;;;8.50;99.90;;;;;;8441640;28;20101;-71
2024/02/25 11:52:04;;;;;;;11.82;6.80;;;8.40;99.90;;;;;;8447295;28;20040;-70
2024/02/25 11:56:07;;;;;;;11.93;5.53;;;8.40;99.90;;;;;;8438974;28;20093;-71
2024/02/25 12:00:10;;;;;;;11.30;5.95;;;8.50;99.90;;;;;;8452933;28;20052;-71
2024/02/25 12:04:17;;;;;;;11.95;6.80;;;8.60;99.90;;;;;;8440360;28;20051;-71
2024/02/25 12:08:19;;;;;;;13.10;6.93;;;8.90;99.90;;;;;;8445759;28;20051;-71
2024/02/25 12:12:21;;;;;;;12.10;6.93;;;9.00;99.90;;;;;;8450284;28;20047;-71
2024/02/25 12:16:23;;;;;;;10.35;6.53;;;8.90;99.90;;;;;;8438121;28;20039;-71
2024/02/25 12:20:25;;;;;;;8.85;5.60;;;8.70;99.90;;;;;;8438541;28;20052;-71
2024/02/25 12:24:27;;;;;;;11.85;7.15;;;8.60;99.90;;;;;;8434147;28;20067;-71
2024/02/25 12:28:36;;;;;;;12.32;7.70;;;8.50;99.90;;;;;;8426277;28;20075;-71
2024/02/25 12:32:38;;;;;;;13.55;6.97;;;8.40;99.90;;;;;;8419879;28;20048;-71
2024/02/25 12:36:44;;;;;;;11.30;7.20;;;8.30;99.90;;;;;;8420287;28;20062;-71
2024/02/25 12:40:51;;;;;;;10.82;6.80;;;8.50;99.90;;;;;;8436663;28;20048;-71
2024/02/25 12:44:53;;;;;;;10.68;6.22;;;8.70;99.90;;;;;;8435268;28;20487;-71
2024/02/25 12:48:55;;;;;;;9.38;5.25;;;8.80;99.90;;;;;;8435940;28;20043;-71
2024/02/25 12:52:58;;;;;;;7.90;5.00;;;9.00;99.90;;;;;;8440151;28;20475;-71
2024/02/25 12:57:00;;;;;;;7.35;4.38;;;9.20;99.90;;;;;;8440417;28;20044;-71
2024/02/25 13:01:02;;;;;;;7.63;4.38;;;9.30;99.90;;;;;;8442617;28;20101;-71
2024/02/25 13:05:05;;;;;;;7.13;4.35;;;9.30;99.90;;;;;;8464734;27;20056;-71
2024/02/25 13:09:06;;;;;;;7.82;3.88;;;9.40;99.90;;;;;;8438484;28;20039;-71
2024/02/25 13:13:08;;;;;;;7.07;3.90;;;9.40;99.90;;;;;;8440677;28;20050;-71
2024/02/25 13:17:13;;;;;;;7.05;3.95;;;9.50;99.90;;;;;;8439503;27;20040;-71
2024/02/25 13:21:15;;;;;;;6.85;3.88;;;9.50;99.90;;;;;;8433958;28;20050;-71
2024/02/25 13:25:17;;;;;;;7.25;3.78;;;9.40;99.90;;;;;;8435279;28;20422;-71
2024/02/25 13:29:19;;;;;;;7.07;3.65;;;9.40;99.90;;;;;;8435767;28;20479;-71
2024/02/25 13:33:21;;;;;;;4.93;2.92;;;9.20;99.90;;;;;;8435706;28;20051;-71
2024/02/25 13:37:23;;;;;;;5.15;2.88;;;8.80;99.90;;;;;;8437229;27;20050;-71
2024/02/25 13:41:24;;;;;;;5.10;2.65;;;8.50;99.90;;;;;;8435382;28;20048;-71
2024/02/25 13:45:26;;;;;;;5.47;3.00;;;8.20;99.90;;;;;;8425744;28;20087;-71
2024/02/25 13:49:28;;;;;;;5.43;2.65;;;8.30;99.90;;;;;;8423502;27;20097;-71
2024/02/25 13:53:30;;;;;;;5.97;2.50;;;8.40;99.90;;;;;;8424621;28;20067;-71
2024/02/25 13:57:36;;;;;;;5.13;2.50;;;8.50;99.90;;;;;;8425810;28;20145;-70
2024/02/25 14:01:38;;;;;;;4.57;2.67;;;8.60;99.90;;;;;;8425429;28;20048;-71
2024/02/25 14:05:40;;;;;;;5.15;2.58;;;8.70;99.90;;;;;;8436602;28;20047;-71
2024/02/25 14:09:42;;;;;;;6.13;2.90;;;8.90;99.90;;;;;;8417935;27;20051;-71
2024/02/25 14:13:44;;;;;;;4.65;2.50;;;9.10;99.90;;;;;;8425112;28;20054;-71
2024/02/25 14:17:55;;;;;;;5.00;1.95;;;9.40;99.90;;;;;;8426226;28;20052;-71
2024/02/25 14:22:03;;;;;;;4.93;1.90;;;9.60;99.90;;;;;;8440081;28;20122;-71
2024/02/25 14:26:05;;;;;;;4.88;2.10;;;10.00;99.90;;;;;;8438126;28;20056;-71
2024/02/25 14:30:07;;;;;;;5.25;2.30;;;10.40;99.90;;;;;;8434357;28;20047;-71
2024/02/25 14:34:10;;;;;;;3.70;1.90;;;10.70;99.90;;;;;;8423506;28;20053;-73
2024/02/25 14:38:12;;;;;;;4.68;1.73;;;11.10;99.90;;;;;;8423562;28;20407;-71
2024/02/25 14:42:15;;;;;;;3.67;1.70;;;11.50;99.90;;;;;;8421363;27;20105;-72
2024/02/25 14:46:18;;;;;;;4.15;1.65;;;12.40;99.90;;;;;;8420604;28;20048;-71
2024/02/25 14:50:19;;;;;;;3.25;1.27;;;13.80;99.90;;;;;;8432708;28;20039;-71
2024/02/25 14:54:23;;;;;;;3.92;1.45;;;15.10;99.90;;;;;;8420622;28;20298;-71
2024/02/25 14:58:25;;;;;;;2.97;1.40;;;15.90;99.90;;;;;;8422551;28;20050;-71
2024/02/25 15:02:27;;;;;;;3.00;1.10;;;16.30;99.90;;;;;;8417731;28;20482;-71
2024/02/25 15:06:29;;;;;;;3.20;1.30;;;16.60;99.90;;;;;;8414873;28;20048;-71
2024/02/25 15:10:31;;;;;;;3.25;1.30;;;16.80;99.90;;;;;;8431441;28;20047;-71
2024/02/25 15:14:33;;;;;;;2.70;1.30;;;16.40;99.90;;;;;;8429330;28;20086;-71
2024/02/25 15:18:35;;;;;;;4.47;1.35;;;16.20;99.90;;;;;;8418632;28;20091;-71
2024/02/25 15:22:37;;;;;;;4.32;1.50;;;15.80;99.90;;;;;;8428181;28;20134;-71
2024/02/25 15:26:38;;;;;;;3.30;1.33;;;15.70;99.90;;;;;;8421566;28;20051;-71
2024/02/25 15:30:45;;;;;;;3.47;1.73;;;16.10;99.90;;;;;;8420848;28;20142;-71
2024/02/25 15:34:48;;;;;;;3.03;1.30;;;16.70;99.90;;;;;;8450207;27;20044;-71
2024/02/25 15:38:55;;;;;;;3.13;1.20;;;17.20;99.90;;;;;;8427496;28;20048;-70
2024/02/25 15:43:02;;;;;;;5.95;1.15;;;16.80;99.90;;;;;;8462190;27;20044;-71
2024/02/25 15:47:04;;;;;;;1.80;1.00;;;15.90;99.90;;;;;;8428664;28;20407;-71
2024/02/25 15:51:05;;;;;;;4.07;1.20;;;14.90;99.90;;;;;;8420822;28;20387;-71
2024/02/25 15:55:18;;;;;;;3.50;1.23;;;13.90;99.90;;;;;;8429161;28;20036;-71
2024/02/25 15:59:20;;;;;;;3.05;1.20;;;13.10;99.90;;;;;;8432744;28;20047;-71
2024/02/25 16:03:23;;;;;;;3.42;1.25;;;12.50;99.90;;;;;;8433543;28;20501;-71
2024/02/25 16:07:25;;;;;;;4.75;1.38;;;12.10;99.90;;;;;;8435266;28;20080;-71
2024/02/25 16:11:27;;;;;;;3.88;1.30;;;11.80;99.90;;;;;;8432974;28;20068;-71
2024/02/25 16:15:30;;;;;;;3.05;1.30;;;11.50;99.90;;;;;;8425573;28;20127;-71
2024/02/25 16:19:32;;;;;;;5.40;1.20;;;11.20;99.90;;;;;;8430153;28;20060;-71
2024/02/25 16:23:38;;;;;;;2.42;1.10;;;11.00;99.90;;;;;;8425765;28;20079;-71
2024/02/25 16:27:40;;;;;;;3.22;1.20;;;10.90;99.90;;;;;;8425535;27;20457;-71
2024/02/25 16:31:43;;;;;;;3.00;1.27;;;10.70;99.90;;;;;;8429304;28;20442;-71
2024/02/25 16:35:45;;;;;;;4.00;1.30;;;10.60;99.90;;;;;;8435594;28;20044;-71
2024/02/25 16:39:47;;;;;;;3.35;1.38;;;10.50;99.90;;;;;;8428996;28;20054;-70
2024/02/25 16:43:49;;;;;;;3.05;1.25;;;10.40;99.90;;;;;;8435925;28;20060;-71
2024/02/25 16:47:51;;;;;;;3.20;1.30;;;10.40;99.90;;;;;;8429737;27;20044;-71
2024/02/25 16:51:53;;;;;;;3.42;1.38;;;10.40;99.90;;;;;;8427273;28;20047;-71
2024/02/25 16:55:55;;;;;;;5.43;1.67;;;10.30;99.90;;;;;;8436890;28;20044;-71
2024/02/25 16:59:57;;;;;;;2.88;1.35;;;10.20;99.90;;;;;;8428612;28;20051;-71
2024/02/25 17:03:59;;;;;;;3.83;1.65;;;10.10;99.90;;;;;;8426347;28;20180;-71
2024/02/25 17:08:01;;;;;;;3.72;1.50;;;9.90;99.90;;;;;;8426715;28;20066;-71
2024/02/25 17:12:04;;;;;;;4.47;1.70;;;9.80;99.90;;;;;;8427682;28;20055;-71
2024/02/25 17:16:10;;;;;;;4.65;1.90;;;9.70;99.90;;;;;;8426483;28;20043;-71
2024/02/25 17:20:12;;;;;;;3.45;1.80;;;9.60;99.90;;;;;;8428163;28;20431;-71
2024/02/25 17:24:17;;;;;;;6.85;1.90;;;9.50;99.90;;;;;;8423330;27;20093;-71
2024/02/25 17:28:19;;;;;;;4.93;1.80;;;9.40;99.90;;;;;;8426054;27;20083;-71
2024/02/25 17:32:21;;;;;;;3.95;1.63;;;9.40;99.90;;;;;;8426665;28;20040;-71
2024/02/25 17:36:22;;;;;;;3.85;1.65;;;9.20;99.90;;;;;;8429835;27;20052;-71
2024/02/25 17:40:24;;;;;;;4.65;1.65;;;9.20;99.90;;;;;;8428845;27;20131;-71
2024/02/25 17:44:26;;;;;;;5.60;2.03;;;9.10;99.90;;;;;;8425190;28;20391;-71
2024/02/25 17:48:28;;;;;;;5.38;2.50;;;9.10;99.90;;;;;;8431484;28;20056;-71
2024/02/25 17:52:30;;;;;;;5.07;2.65;;;9.00;99.90;;;;;;8418313;28;20048;-71
2024/02/25 17:56:33;;;;;;;4.53;2.50;;;9.00;99.90;;;;;;8425740;28;20484;-71
2024/02/25 18:00:35;;;;;;;5.60;2.83;;;8.80;99.90;;;;;;8424271;28;20051;-71
2024/02/25 18:04:36;;;;;;;5.75;3.00;;;8.70;99.90;;;;;;8443150;28;20059;-71
2024/02/25 18:08:39;;;;;;;7.15;3.05;;;8.60;99.90;;;;;;8431866;28;20443;-71
2024/02/25 18:12:42;;;;;;;5.32;3.08;;;8.50;99.90;;;;;;8424344;28;20079;-71
2024/02/25 18:16:44;;;;;;;7.15;3.13;;;8.30;99.90;;;;;;8424415;28;20048;-71
2024/02/25 18:20:46;;;;;;;5.35;3.10;;;8.20;99.90;;;;;;8416127;28;20105;-71
2024/02/25 18:24:49;;;;;;;6.53;3.05;;;8.10;99.90;;;;;;8432616;28;20087;-71
2024/02/25 18:28:51;;;;;;;5.80;3.08;;;8.00;99.90;;;;;;8436085;28;20445;-71
2024/02/25 18:32:54;;;;;;;5.80;3.25;;;8.00;99.90;;;;;;8435450;28;20043;-71
2024/02/25 18:36:56;;;;;;;5.18;2.90;;;7.90;99.90;;;;;;8429541;27;21795;-71
2024/02/25 18:40:58;;;;;;;5.75;2.97;;;7.80;99.90;;;;;;8443382;28;20044;-71
2024/02/25 18:45:00;;;;;;;5.50;2.60;;;7.70;99.90;;;;;;8442553;28;20056;-71
2024/02/25 18:49:02;;;;;;;5.80;2.85;;;7.70;99.90;;;;;;8463983;27;20067;-71
2024/02/25 18:53:05;;;;;;;6.72;2.88;;;7.70;99.90;;;;;;8437249;27;20041;-71
2024/02/25 18:57:06;;;;;;;5.03;2.67;;;7.70;99.90;;;;;;8436320;28;20044;-71
2024/02/25 19:01:09;;;;;;;6.30;3.22;;;7.70;99.90;;;;;;8434814;27;20059;-71
2024/02/25 19:05:11;;;;;;;5.13;2.92;;;7.70;99.90;;;;;;8433634;28;20083;-71
2024/02/25 19:09:18;;;;;;;5.18;3.03;;;7.60;99.90;;;;;;8422184;27;20043;-71
2024/02/25 19:13:26;;;;;;;8.02;3.33;;;7.60;99.90;;;;;;8422399;28;20049;-71
2024/02/25 19:17:33;;;;;;;5.80;3.00;;;7.60;99.90;;;;;;8424739;28;20059;-71
2024/02/25 19:21:36;;;;;;;7.35;3.13;;;7.50;99.90;;;;;;8431302;28;20055;-71
2024/02/25 19:25:38;;;;;;;5.90;3.22;;;7.50;99.90;;;;;;8422658;28;20044;-71
2024/02/25 19:29:40;;;;;;;5.47;2.88;;;7.50;99.90;;;;;;8429321;28;20044;-71
2024/02/25 19:33:42;;;;;;;5.38;3.10;;;7.40;99.90;;;;;;8421605;28;20046;-71
2024/02/25 19:37:44;;;;;;;6.00;3.13;;;7.40;99.90;;;;;;8424880;28;20131;-71
2024/02/25 19:41:47;;;;;;;7.15;2.95;;;7.30;99.90;;;;;;8417902;28;20055;-71
2024/02/25 19:45:51;;;;;;;6.45;2.75;;;7.30;99.90;;;;;;8453581;27;20090;-71
2024/02/25 19:49:53;;;;;;;4.80;2.45;;;7.20;99.90;;;;;;8440203;28;20039;-71
2024/02/25 19:53:55;;;;;;;5.43;2.60;;;7.20;99.90;;;;;;8433441;28;20036;-71
2024/02/25 19:57:57;;;;;;;6.18;2.30;;;7.20;99.90;;;;;;8434903;28;20505;-71
2024/02/25 20:01:59;;;;;;;5.13;2.22;;;7.10;99.90;;;;;;8431369;28;20058;-71
2024/02/25 20:06:01;;;;;;;4.63;2.20;;;7.10;99.90;;;;;;8438380;28;20043;-71
2024/02/25 20:10:08;;;;;;;5.68;2.38;;;7.10;99.90;;;;;;8434609;28;20097;-71
2024/02/25 20:14:10;;;;;;;4.97;2.28;;;7.10;99.90;;;;;;8437404;28;20476;-71
2024/02/25 20:18:12;;;;;;;6.15;2.17;;;7.10;99.90;;;;;;8433531;28;20055;-71
2024/02/25 20:22:14;;;;;;;4.65;2.25;;;7.10;99.90;;;;;;8423062;28;20048;-71
2024/02/25 20:26:16;;;;;;;5.63;2.42;;;7.00;99.90;;;;;;8434270;28;20058;-71
2024/02/25 20:30:18;;;;;;;4.32;2.35;;;7.00;99.90;;;;;;8426632;28;20051;-71
2024/02/25 20:34:40;;;;;;;4.63;2.58;;;7.00;99.90;;;;;;8425887;28;20136;-71
2024/02/25 20:38:42;;;;;;;5.68;2.40;;;7.00;99.90;;;;;;8425979;28;20381;-71
2024/02/25 20:42:44;;;;;;;5.43;2.42;;;7.00;99.90;;;;;;8430463;28;20108;-71
2024/02/25 20:46:49;;;;;;;7.55;2.58;;;6.90;99.90;;;;;;8427893;28;20051;-71
2024/02/25 20:50:50;;;;;;;4.72;2.30;;;6.90;99.90;;;;;;8430341;28;20052;-71
2024/02/25 20:54:54;;;;;;;4.88;2.38;;;6.90;99.90;;;;;;8423534;27;21320;-71
2024/02/25 20:58:56;;;;;;;5.03;2.58;;;6.90;99.90;;;;;;8426436;28;20055;-71
2024/02/25 21:02:58;;;;;;;5.15;2.63;;;6.80;99.90;;;;;;8427932;27;20063;-71
2024/02/25 21:07:01;;;;;;;5.10;2.60;;;6.80;99.90;;;;;;8427547;28;20051;-71
2024/02/25 21:11:03;;;;;;;6.20;2.60;;;6.80;99.90;;;;;;8435194;28;20044;-71
2024/02/25 21:15:05;;;;;;;5.82;3.00;;;6.80;99.90;;;;;;8423640;28;20040;-71
2024/02/25 21:19:10;;;;;;;4.88;2.60;;;6.80;99.90;;;;;;8426061;28;20138;-71
2024/02/25 21:23:12;;;;;;;4.93;2.60;;;6.80;99.90;;;;;;8434080;28;20553;-71
2024/02/25 21:32:36;;;;;;;6.43;2.90;;;6.80;99.90;;;;;;8426780;28;20063;-71
2024/02/25 21:36:38;;;;;;;7.28;3.03;;;6.80;99.90;;;;;;8426439;28;20044;-71